createdAt,value
2023-05-04T00:01:18.918Z,99062.84
2023-05-04T00:04:21.944Z,99054.37
2023-05-04T00:07:25.144Z,99055.59
2023-05-04T00:10:28.217Z,99054.86
2023-05-04T00:13:31.299Z,99055.95
2023-05-04T00:16:35.759Z,99058.27
2023-05-04T00:19:41.066Z,99060.08
2023-05-04T00:22:44.067Z,99056.08
2023-05-04T00:25:47.109Z,99051.17
2023-05-04T00:28:50.385Z,99047.83
2023-05-04T00:31:53.509Z,99047.27
2023-05-04T00:34:57.024Z,99047.15
2023-05-04T00:38:04.797Z,99045.37
2023-05-04T00:41:07.729Z,99044.05
2023-05-04T00:44:10.874Z,99042.73
2023-05-04T00:47:14.103Z,99039.80
2023-05-04T00:50:17.257Z,99035.59
2023-05-04T00:53:20.500Z,99033.48
2023-05-04T00:56:24.649Z,99033.36
2023-05-04T00:59:27.772Z,99028.80
2023-05-04T01:02:31.030Z,99027.45
2023-05-04T01:05:43.089Z,99030.41
2023-05-04T01:09:02.640Z,99030.52
2023-05-04T01:12:15.026Z,99028.29
2023-05-04T01:15:18.480Z,99029.00
2023-05-04T01:18:23.374Z,99035.65
2023-05-04T01:21:29.722Z,99033.70
2023-05-04T01:24:33.361Z,99032.64
2023-05-04T01:27:58.459Z,99035.06
2023-05-04T01:31:02.735Z,99029.73
2023-05-04T01:34:08.834Z,99029.59
2023-05-04T01:37:11.880Z,99023.80
2023-05-04T01:40:15.804Z,99021.84
2023-05-04T01:43:18.798Z,99019.28
2023-05-04T01:46:22.049Z,99017.36
2023-05-04T01:49:25.046Z,99014.31
2023-05-04T01:52:28.026Z,99013.29
2023-05-04T01:55:31.562Z,99017.34
2023-05-04T01:58:34.644Z,99020.02
2023-05-04T02:01:37.762Z,99021.33
2023-05-04T02:04:41.483Z,99024.09
2023-05-04T02:07:44.455Z,99018.09
2023-05-04T02:10:48.161Z,99015.70
2023-05-04T02:13:51.238Z,99015.39
2023-05-04T02:16:54.483Z,99015.33
2023-05-04T02:19:57.490Z,99013.02
2023-05-04T02:23:00.800Z,99010.52
2023-05-04T02:26:03.804Z,99013.44
2023-05-04T02:29:06.816Z,99014.48
2023-05-04T02:32:09.806Z,99017.67
2023-05-04T02:35:13.047Z,99016.33
2023-05-04T02:38:16.016Z,99023.75
2023-05-04T02:41:19.079Z,99020.59
2023-05-04T02:44:22.114Z,99018.22
2023-05-04T02:47:25.275Z,99021.70
2023-05-04T02:50:28.418Z,99020.44
2023-05-04T02:53:31.462Z,99024.14
2023-05-04T02:56:34.471Z,99025.73
2023-05-04T02:59:37.551Z,99028.77
2023-05-04T03:02:41.080Z,99024.87
2023-05-04T03:05:44.126Z,99027.33
2023-05-04T03:08:47.101Z,99023.64
2023-05-04T03:11:50.145Z,99018.79
2023-05-04T03:14:53.329Z,99015.24
2023-05-04T03:17:56.517Z,99021.90
2023-05-04T03:20:59.634Z,99022.38
2023-05-04T03:24:03.941Z,99021.27
2023-05-04T03:27:07.235Z,99018.70
2023-05-04T03:30:14.673Z,99017.41
2023-05-04T03:33:20.392Z,99027.04
2023-05-04T03:36:23.524Z,99026.11
2023-05-04T03:39:26.786Z,99022.77
2023-05-04T03:42:29.986Z,99023.63
2023-05-04T03:45:33.206Z,99017.10
2023-05-04T03:48:36.364Z,99013.89
2023-05-04T03:51:40.843Z,99018.39
2023-05-04T03:54:44.046Z,99020.09
2023-05-04T03:57:47.522Z,99019.61
2023-05-04T04:00:50.574Z,99023.26
2023-05-04T04:03:53.850Z,99028.25
2023-05-04T04:06:57.073Z,99027.78
2023-05-04T04:10:00.414Z,99028.23
2023-05-04T04:13:03.507Z,99031.15
2023-05-04T04:16:06.878Z,99030.11
2023-05-04T04:19:09.899Z,99034.73
2023-05-04T04:22:12.941Z,99027.98
2023-05-04T04:25:15.915Z,99030.83
2023-05-04T04:28:18.935Z,99033.06
2023-05-04T04:31:22.034Z,99037.70
2023-05-04T04:34:25.165Z,99038.64
2023-05-04T04:37:28.371Z,99038.02
2023-05-04T04:40:31.609Z,99038.00
2023-05-04T04:43:34.852Z,99035.54
2023-05-04T04:46:37.980Z,99033.87
2023-05-04T04:49:41.010Z,99027.42
2023-05-04T04:52:44.008Z,99032.48
2023-05-04T04:55:47.166Z,99030.10
2023-05-04T04:58:50.918Z,99031.27
2023-05-04T05:01:53.933Z,99031.50
2023-05-04T05:04:57.225Z,99027.89
2023-05-04T05:08:00.310Z,99026.10
2023-05-04T05:11:04.061Z,99031.02
2023-05-04T05:14:07.178Z,99032.30
2023-05-04T05:17:10.368Z,99028.79
2023-05-04T05:20:15.277Z,99030.38
2023-05-04T05:23:18.436Z,99027.52
2023-05-04T05:26:21.762Z,99030.85
2023-05-04T05:29:25.836Z,99031.79
2023-05-04T05:32:29.294Z,99034.38
2023-05-04T05:35:32.225Z,99036.71
2023-05-04T05:38:35.434Z,99035.09
2023-05-04T05:41:38.427Z,99035.11
2023-05-04T05:44:41.542Z,99033.22
2023-05-04T05:47:44.575Z,99037.52
2023-05-04T05:50:47.670Z,99036.93
2023-05-04T05:53:50.696Z,99036.96
2023-05-04T05:56:53.692Z,99035.92
2023-05-04T05:59:57.916Z,99035.69
2023-05-04T06:03:00.942Z,99035.51
2023-05-04T06:06:04.333Z,99036.56
2023-05-04T06:09:07.345Z,99037.94
2023-05-04T06:12:13.558Z,99029.52
2023-05-04T06:15:16.658Z,99028.98
2023-05-04T06:18:20.459Z,99028.13
2023-05-04T06:21:23.481Z,99031.44
2023-05-04T06:24:27.132Z,99033.56
2023-05-04T06:28:26.188Z,99034.55
2023-05-04T06:31:29.567Z,99029.63
2023-05-04T06:34:41.606Z,99028.78
2023-05-04T06:37:45.082Z,99025.48
2023-05-04T06:40:48.519Z,99030.23
2023-05-04T06:43:51.842Z,99024.15
2023-05-04T06:47:01.555Z,99022.27
2023-05-04T06:50:09.658Z,99027.71
2023-05-04T06:53:16.105Z,99028.48
2023-05-04T06:56:19.245Z,99027.19
2023-05-04T06:59:27.614Z,99026.67
2023-05-04T07:02:30.890Z,99028.05
2023-05-04T07:05:48.731Z,99019.55
2023-05-04T07:08:52.054Z,99021.45
2023-05-04T07:11:56.298Z,99024.64
2023-05-04T07:15:02.418Z,99024.73
2023-05-04T07:18:51.133Z,99025.21
2023-05-04T07:22:41.318Z,99031.88
2023-05-04T07:25:48.480Z,99034.52
2023-05-04T07:28:52.108Z,99032.67
2023-05-04T07:32:27.247Z,99029.73
2023-05-04T07:39:30.636Z,99029.98
2023-05-04T07:46:49.449Z,99029.93
2023-05-04T07:53:55.178Z,99032.23
2023-05-04T07:56:58.590Z,99024.50
2023-05-04T08:00:01.853Z,99024.80
2023-05-04T08:03:08.032Z,99019.66
2023-05-04T08:06:17.440Z,99018.79
2023-05-04T08:09:20.645Z,99018.14
2023-05-04T08:12:26.270Z,99011.51
2023-05-04T08:15:36.602Z,99018.17
2023-05-04T08:18:39.772Z,99012.55
2023-05-04T08:21:42.987Z,99016.23
2023-05-04T08:25:23.017Z,99021.27
2023-05-04T08:28:24.781Z,99024.76
2023-05-04T08:31:26.645Z,99022.17
2023-05-04T08:34:28.386Z,99029.34
2023-05-04T08:37:32.008Z,99022.54
2023-05-04T08:40:34.443Z,99020.06
2023-05-04T08:43:36.873Z,99027.91
2023-05-04T08:46:40.406Z,99024.70
2023-05-04T08:49:53.738Z,99022.60
2023-05-04T08:53:51.822Z,99020.45
2023-05-04T09:02:00.007Z,99020.70
2023-05-04T09:05:02.175Z,99018.20
2023-05-04T09:14:12.236Z,99013.23
2023-05-04T09:21:16.914Z,99000.06
2023-05-04T09:24:30.811Z,98997.72
2023-05-04T09:27:34.221Z,98998.77
2023-05-04T09:49:29.429Z,98989.01
2023-05-04T09:53:06.066Z,98984.39
2023-05-04T09:56:48.813Z,98987.20
2023-05-04T10:00:22.413Z,98978.02
2023-05-04T10:19:32.369Z,98957.97
2023-05-04T10:23:52.308Z,98954.16
2023-05-04T10:28:40.606Z,98949.00
2023-05-04T10:31:44.974Z,98947.96
2023-05-04T10:35:10.174Z,98940.61
2023-05-04T10:38:16.565Z,98938.13
2023-05-04T10:41:21.958Z,98938.16
2023-05-04T10:44:25.642Z,98931.54
2023-05-04T10:47:45.336Z,98929.48
2023-05-04T10:50:51.647Z,98928.08
2023-05-04T10:53:54.761Z,98927.03
2023-05-04T10:57:12.727Z,98926.30
2023-05-04T11:00:16.717Z,98923.02
2023-05-04T11:03:22.476Z,98920.94
2023-05-04T11:06:26.377Z,98911.38
2023-05-04T11:09:37.524Z,98909.14
2023-05-04T11:12:40.814Z,98908.48
2023-05-04T11:16:04.971Z,98911.91
2023-05-04T11:19:12.618Z,98906.10
2023-05-04T11:22:17.063Z,98907.32
2023-05-04T11:25:30.478Z,98903.20
2023-05-04T11:28:37.978Z,98903.11
2023-05-04T11:31:41.376Z,98894.50
2023-05-04T11:34:48.386Z,98891.50
2023-05-04T11:37:51.787Z,98887.86
2023-05-04T11:40:55.605Z,98880.90
2023-05-04T11:44:01.826Z,98875.52
2023-05-04T11:47:05.127Z,98873.34
2023-05-04T11:50:11.061Z,98871.21
2023-05-04T11:53:14.369Z,98870.45
2023-05-04T11:56:17.488Z,98875.88
2023-05-04T11:59:20.970Z,98871.32
2023-05-04T12:02:25.882Z,98868.83
2023-05-04T12:05:31.154Z,98866.37
2023-05-04T12:08:47.689Z,98862.35
2023-05-04T12:11:56.384Z,98856.27
2023-05-04T12:14:59.363Z,98857.96
2023-05-04T12:18:03.501Z,98857.33
2023-05-04T12:21:10.482Z,98854.82
2023-05-04T12:24:13.879Z,98853.05
2023-05-04T12:27:17.723Z,98850.01
2023-05-04T12:30:20.854Z,98846.98
2023-05-04T12:33:24.062Z,98839.02
2023-05-04T12:36:27.783Z,98838.66
2023-05-04T12:39:32.660Z,98834.93
2023-05-04T12:42:35.699Z,98834.65
2023-05-04T12:45:39.294Z,98830.97
2023-05-04T12:48:42.417Z,98832.46
2023-05-04T12:51:45.925Z,98830.89
2023-05-04T12:54:49.891Z,98829.09
2023-05-04T12:57:53.260Z,98820.13
2023-05-04T13:00:58.072Z,98817.59
2023-05-04T13:04:01.438Z,98816.52
2023-05-04T13:07:04.590Z,98811.95
2023-05-04T13:10:08.373Z,98806.13
2023-05-04T13:13:11.528Z,98807.52
2023-05-04T13:16:15.092Z,98800.23
2023-05-04T13:19:18.559Z,98801.89
2023-05-04T13:22:22.012Z,98797.43
2023-05-04T13:25:25.638Z,98799.89
2023-05-04T13:28:39.352Z,98800.14
2023-05-04T13:31:44.777Z,98791.56
2023-05-04T13:34:49.217Z,98786.75
2023-05-04T13:37:52.638Z,98782.45
2023-05-04T13:40:56.067Z,98783.31
2023-05-04T13:43:59.522Z,98779.27
2023-05-04T13:47:03.438Z,98770.00
2023-05-04T13:50:07.316Z,98770.15
2023-05-04T13:53:13.623Z,98765.77
2023-05-04T13:56:16.735Z,98760.96
2023-05-04T13:59:20.204Z,98761.91
2023-05-04T14:02:23.546Z,98756.36
2023-05-04T14:05:26.755Z,98752.83
2023-05-04T14:08:30.837Z,98753.13
2023-05-04T14:11:33.997Z,98755.02
2023-05-04T14:14:37.016Z,98748.02
2023-05-04T14:17:41.432Z,98752.48
2023-05-04T14:20:44.534Z,98745.68
2023-05-04T14:23:48.040Z,98739.45
2023-05-04T14:26:51.230Z,98744.23
2023-05-04T14:29:54.380Z,98738.17
2023-05-04T14:32:58.330Z,98738.94
2023-05-04T14:36:01.889Z,98736.92
2023-05-04T14:39:13.840Z,98735.20
2023-05-04T14:42:30.363Z,98732.75
2023-05-04T14:46:32.288Z,98735.15
2023-05-04T14:49:37.678Z,98730.72
2023-05-04T14:52:42.269Z,98732.88
2023-05-04T14:55:53.589Z,98738.48
2023-05-04T14:59:01.739Z,98727.91
2023-05-04T15:10:03.497Z,98730.23
2023-05-04T15:14:08.320Z,98724.20
2023-05-04T15:21:46.130Z,98716.94
2023-05-04T15:24:49.137Z,98722.72
2023-05-04T15:27:52.165Z,98719.19
2023-05-04T15:30:55.231Z,98715.95
2023-05-04T15:34:00.553Z,98715.13
2023-05-04T15:37:03.593Z,98710.70
2023-05-04T15:40:08.104Z,98706.56
2023-05-04T15:43:11.430Z,98708.38
2023-05-04T15:46:37.789Z,98701.27
2023-05-04T15:49:40.919Z,98704.30
2023-05-04T15:52:43.983Z,98703.77
2023-05-04T15:55:46.939Z,98699.17
2023-05-04T15:58:50.095Z,98697.46
2023-05-04T16:01:53.431Z,98699.23
2023-05-04T16:04:56.475Z,98701.67
2023-05-04T16:08:01.273Z,98697.30
2023-05-04T16:11:05.452Z,98700.45
2023-05-04T16:14:08.576Z,98694.66
2023-05-04T16:17:11.727Z,98698.70
2023-05-04T16:59:15.907Z,98693.76
2023-05-04T17:02:17.867Z,98691.86
2023-05-04T17:05:20.424Z,98693.55
2023-05-04T17:08:22.692Z,98696.73
2023-05-04T17:11:24.984Z,98691.50
2023-05-04T17:14:26.679Z,98697.12
2023-05-04T17:17:28.532Z,98697.56
2023-05-04T17:20:31.244Z,98698.40
2023-05-04T17:23:32.992Z,98696.98
2023-05-04T17:26:34.702Z,98696.83
2023-05-04T17:29:36.380Z,98697.70
2023-05-04T17:32:38.141Z,98703.75
2023-05-04T17:35:40.302Z,98703.71
2023-05-04T17:38:41.871Z,98702.13
2023-05-04T17:41:47.887Z,98704.20
2023-05-04T17:44:49.624Z,98704.96
2023-05-04T17:47:51.646Z,98707.67
2023-05-04T17:50:53.423Z,98706.75
2023-05-04T17:53:55.141Z,98707.56
2023-05-04T17:56:56.838Z,98707.91
2023-05-04T18:00:04.539Z,98706.27
2023-05-04T18:03:06.749Z,98713.11
2023-05-04T18:06:08.973Z,98719.69
2023-05-04T18:09:11.202Z,98719.16
2023-05-04T18:12:13.244Z,98726.46
2023-05-04T18:15:17.788Z,98730.23
2023-05-04T18:18:19.472Z,98728.52
2023-05-04T18:21:21.345Z,98734.62
2023-05-04T18:24:23.001Z,98737.63
2023-05-04T18:27:24.698Z,98738.26
2023-05-04T18:30:26.716Z,98739.14
2023-05-04T18:33:28.757Z,98745.22
2023-05-04T18:36:30.555Z,98746.79
2023-05-04T18:39:32.317Z,98745.17
2023-05-04T18:42:34.126Z,98748.79
2023-05-04T18:45:39.260Z,98751.12
2023-05-04T18:48:41.405Z,98752.83
2023-05-04T18:51:43.783Z,98752.30
2023-05-04T18:55:11.363Z,98752.81
2023-05-04T18:58:13.196Z,98753.48
2023-05-04T19:01:15.218Z,98753.19
2023-05-04T19:04:17.104Z,98753.38
2023-05-04T19:07:32.335Z,98755.13
2023-05-04T19:10:34.175Z,98751.05
2023-05-04T19:13:36.298Z,98752.51
2023-05-04T19:16:38.121Z,98747.87
2023-05-04T19:19:39.977Z,98749.66
2023-05-04T19:22:41.720Z,98751.33
2023-05-04T19:25:44.686Z,98752.33
2023-05-04T19:28:48.561Z,98757.89
2023-05-04T19:31:50.309Z,98762.41
2023-05-04T19:34:52.168Z,98762.84
2023-05-04T19:37:53.886Z,98762.22
2023-05-04T19:40:56.013Z,98760.10
2023-05-04T19:43:57.746Z,98758.77
2023-05-04T19:46:59.686Z,98754.06
2023-05-04T19:50:03.018Z,98752.17
2023-05-04T19:53:12.285Z,98752.59
2023-05-04T19:56:14.002Z,98747.39
2023-05-04T19:59:15.792Z,98745.91
2023-05-04T20:02:17.685Z,98738.34
2023-05-04T20:05:19.475Z,98737.48
2023-05-04T20:08:21.204Z,98733.02
2023-05-04T20:11:22.902Z,98734.92
2023-05-04T20:14:24.649Z,98728.52
2023-05-04T20:17:26.885Z,98731.08
2023-05-04T20:20:28.461Z,98728.86
2023-05-04T20:23:30.194Z,98733.94
2023-05-04T20:26:32.054Z,98737.36
2023-05-04T20:29:34.271Z,98737.52
2023-05-04T20:32:35.910Z,98735.87
2023-05-04T20:35:40.258Z,98729.56
2023-05-04T20:38:41.921Z,98732.09
2023-05-04T20:41:43.628Z,98732.34
2023-05-04T20:44:45.440Z,98732.66
2023-05-04T20:47:47.215Z,98730.64
2023-05-04T20:50:50.331Z,98731.21
2023-05-04T20:53:53.403Z,98733.23
2023-05-04T20:56:55.457Z,98731.33
2023-05-04T20:59:57.271Z,98728.67
2023-05-04T21:02:59.058Z,98728.70
2023-05-04T21:06:01.348Z,98729.10
2023-05-04T21:09:03.709Z,98724.13
2023-05-04T21:12:05.416Z,98720.61
2023-05-04T21:15:07.868Z,98717.48
2023-05-04T21:18:09.931Z,98716.46
2023-05-04T21:21:11.646Z,98714.67
2023-05-04T21:24:13.623Z,98709.31
2023-05-04T21:27:15.282Z,98705.52
2023-05-04T21:30:17.077Z,98702.08
2023-05-04T21:33:18.758Z,98703.84
2023-05-04T21:36:22.358Z,98702.03
2023-05-04T21:39:24.086Z,98702.60
2023-05-04T21:42:25.806Z,98697.01
2023-05-04T21:45:32.919Z,98700.25
2023-05-04T21:48:35.422Z,98697.98
2023-05-04T21:51:37.242Z,98699.28
2023-05-04T21:54:39.047Z,98704.49
2023-05-04T21:57:40.864Z,98704.11
2023-05-04T22:00:43.567Z,98703.98
2023-05-04T22:03:45.432Z,98704.95
2023-05-04T22:06:47.689Z,98703.63
2023-05-04T22:09:49.318Z,98703.33
2023-05-04T22:12:51.337Z,98705.08
2023-05-04T22:15:53.233Z,98704.80
2023-05-04T22:18:54.932Z,98709.41
2023-05-04T22:21:56.591Z,98706.89
2023-05-04T22:24:58.282Z,98707.80
2023-05-04T22:28:00.243Z,98703.30
2023-05-04T22:31:01.959Z,98705.21
2023-05-04T22:34:03.754Z,98695.91
2023-05-04T22:37:05.439Z,98696.10
2023-05-04T22:40:08.241Z,98696.41
2023-05-04T22:43:10.064Z,98701.89
2023-05-04T22:46:16.254Z,98700.02
2023-05-04T22:49:17.973Z,98696.71
2023-05-04T22:52:19.950Z,98696.55
2023-05-04T22:55:21.729Z,98692.96
2023-05-04T22:58:23.542Z,98693.45
2023-05-04T23:01:26.816Z,98693.46
2023-05-04T23:04:29.485Z,98695.30
2023-05-04T23:07:31.350Z,98692.02
2023-05-04T23:10:33.073Z,98692.99
2023-05-04T23:13:34.749Z,98697.13
2023-05-04T23:16:37.033Z,98693.91
2023-05-04T23:19:38.683Z,98691.56
2023-05-04T23:22:40.684Z,98686.61
2023-05-04T23:25:42.526Z,98683.78
2023-05-04T23:28:44.300Z,98679.31
2023-05-04T23:31:46.031Z,98676.73
2023-05-04T23:34:47.739Z,98679.09
2023-05-04T23:37:49.488Z,98679.43
2023-05-04T23:40:51.554Z,98679.77
2023-05-04T23:43:53.294Z,98677.34
2023-05-04T23:46:55.034Z,98679.88
2023-05-04T23:49:56.704Z,98671.94
2023-05-04T23:52:58.351Z,98673.54
2023-05-04T23:56:03.488Z,98672.77
2023-05-04T23:59:05.977Z,98669.15
